METAR Data
IDs: Format: Raw Decoded Include TAF

Data at: 1807 UTC 03 Jul 2020

METAR for:KUNI (Albany/Ohio Univ Arp, OH, US)
Text:KUNI 031755Z AUTO 33006KT 10SM CLR 31/16 A3002 RMK AO2 T03140157 10316 20195
Temperature: 31.4°C ( 89°F)
Dewpoint: 15.7°C ( 60°F) [RH = 39%]
Pressure (altimeter):30.02 inches Hg (1016.7 mb)
Winds:from the NNW (330 degrees) at 7 MPH (6 knots; 3.1 m/s)
Visibility:10 or more sm (16+ km)
Ceiling:at least 12,000 feet AGL
Clouds:sky clear below 12,000 feet AGL
QC Flag:automated observation with no human augmentation